createdAt,value
2018-03-02T00:00:07.107Z,7.12
2018-03-02T00:02:34.802Z,7.50
2018-03-02T00:05:02.568Z,7.57
2018-03-02T00:07:30.333Z,6.82
2018-03-02T00:09:58.123Z,7.12
2018-03-02T00:12:25.860Z,7.55
2018-03-02T00:14:53.628Z,7.12
2018-03-02T00:17:21.327Z,6.28
2018-03-02T00:19:49.039Z,8.00
2018-03-02T00:22:16.825Z,7.25
2018-03-02T00:24:44.685Z,6.93
2018-03-02T00:27:12.465Z,6.20
2018-03-02T00:29:40.207Z,6.45
2018-03-02T00:32:07.901Z,6.87
2018-03-02T00:34:35.599Z,7.68
2018-03-02T00:37:03.317Z,7.07
2018-03-02T00:39:31.080Z,5.95
2018-03-02T00:41:58.854Z,6.90
2018-03-02T00:44:26.553Z,5.57
2018-03-02T00:46:54.277Z,6.60
2018-03-02T00:49:21.974Z,7.68
2018-03-02T00:51:49.680Z,7.60
2018-03-02T00:54:17.369Z,6.30
2018-03-02T00:56:45.108Z,6.55
2018-03-02T00:59:12.801Z,7.10
2018-03-02T01:01:40.560Z,6.82
2018-03-02T01:04:08.324Z,6.80
2018-03-02T01:06:36.015Z,6.80
2018-03-02T01:09:03.729Z,5.80
2018-03-02T01:11:31.652Z,5.30
2018-03-02T01:13:59.400Z,5.80
2018-03-02T01:16:27.088Z,6.80
2018-03-02T01:18:54.805Z,6.72
2018-03-02T01:21:22.492Z,6.37
2018-03-02T01:23:50.208Z,6.57
2018-03-02T01:26:17.903Z,7.03
2018-03-02T01:28:45.603Z,5.93
2018-03-02T01:31:13.294Z,6.32
2018-03-02T01:33:41.030Z,6.82
2018-03-02T01:36:08.716Z,6.55
2018-03-02T01:38:36.438Z,6.53
2018-03-02T01:41:04.153Z,6.30
2018-03-02T01:43:31.840Z,6.43
2018-03-02T01:45:59.623Z,6.55
2018-03-02T01:48:27.396Z,5.82
2018-03-02T01:50:55.113Z,5.90
2018-03-02T01:53:22.814Z,6.87
2018-03-02T01:55:50.589Z,5.53
2018-03-02T01:58:18.280Z,5.68
2018-03-02T02:00:45.992Z,5.78
2018-03-02T02:03:13.779Z,5.87
2018-03-02T02:05:41.505Z,6.82
2018-03-02T02:08:09.206Z,6.12
2018-03-02T02:10:36.924Z,6.05
2018-03-02T02:13:04.617Z,7.05
2018-03-02T02:15:32.410Z,6.32
2018-03-02T02:18:00.168Z,7.07
2018-03-02T02:20:27.866Z,6.60
2018-03-02T02:22:55.603Z,6.37
2018-03-02T02:25:23.364Z,6.00
2018-03-02T02:27:51.082Z,7.82
2018-03-02T02:30:18.769Z,6.12
2018-03-02T02:32:46.481Z,5.97
2018-03-02T02:35:14.164Z,6.07
2018-03-02T02:37:41.990Z,6.80
2018-03-02T02:40:09.752Z,6.32
2018-03-02T02:42:37.474Z,7.12
2018-03-02T02:45:05.183Z,6.40
2018-03-02T02:47:32.944Z,6.72
2018-03-02T02:50:05.382Z,7.10
2018-03-02T02:52:33.207Z,7.03
2018-03-02T02:55:00.905Z,7.05
2018-03-02T02:57:28.626Z,7.22
2018-03-02T02:59:56.335Z,7.22
2018-03-02T03:02:24.024Z,5.95
2018-03-02T03:04:51.740Z,6.68
2018-03-02T03:07:19.428Z,6.57
2018-03-02T03:09:47.235Z,6.32
2018-03-02T03:12:14.944Z,6.95
2018-03-02T03:14:42.657Z,6.85
2018-03-02T03:17:10.347Z,6.85
2018-03-02T03:19:38.061Z,7.45
2018-03-02T03:22:05.757Z,7.93
2018-03-02T03:24:33.528Z,6.25
2018-03-02T03:27:01.292Z,7.50
2018-03-02T03:29:28.983Z,7.65
2018-03-02T03:31:56.692Z,7.35
2018-03-02T03:34:24.376Z,6.43
2018-03-02T03:36:52.093Z,6.57
2018-03-02T03:39:19.799Z,7.57
2018-03-02T03:41:47.508Z,7.05
2018-03-02T03:44:15.249Z,7.20
2018-03-02T03:46:42.969Z,7.28
2018-03-02T03:49:10.771Z,5.68
2018-03-02T03:51:38.532Z,5.80
2018-03-02T03:54:06.247Z,7.80
2018-03-02T03:56:33.953Z,6.22
2018-03-02T03:59:01.649Z,7.68
2018-03-02T04:01:29.383Z,6.03
2018-03-02T04:03:57.077Z,7.57
2018-03-02T04:06:24.759Z,6.62
2018-03-02T04:08:52.470Z,7.50
2018-03-02T04:11:20.148Z,7.15
2018-03-02T04:13:48.597Z,8.23
2018-03-02T04:16:16.289Z,7.32
2018-03-02T04:18:44.028Z,7.20
2018-03-02T04:21:11.828Z,7.28
2018-03-02T04:23:39.591Z,7.60
2018-03-02T04:26:07.288Z,8.57
2018-03-02T04:28:34.999Z,8.52
2018-03-02T04:31:02.684Z,9.13
2018-03-02T04:33:30.420Z,9.57
2018-03-02T04:35:58.220Z,8.57
2018-03-02T04:38:25.975Z,8.55
2018-03-02T04:40:53.660Z,8.25
2018-03-02T04:43:21.356Z,8.65
2018-03-02T04:45:49.181Z,9.65
2018-03-02T04:48:16.868Z,9.52
2018-03-02T04:50:44.600Z,8.73
2018-03-02T04:53:12.284Z,8.02
2018-03-02T04:55:40.036Z,8.63
2018-03-02T04:58:07.800Z,8.20
2018-03-02T05:00:35.517Z,7.57
2018-03-02T05:03:03.223Z,8.60
2018-03-02T05:05:30.952Z,10.68
2018-03-02T05:07:58.636Z,8.57
2018-03-02T05:10:26.429Z,8.80
2018-03-02T05:12:54.119Z,9.68
2018-03-02T05:15:21.852Z,8.25
2018-03-02T05:17:49.566Z,8.15
2018-03-02T05:20:17.247Z,7.45
2018-03-02T05:22:45.053Z,7.97
2018-03-02T05:25:12.807Z,8.88
2018-03-02T05:27:40.571Z,7.03
2018-03-02T05:30:08.352Z,8.98
2018-03-02T05:32:36.113Z,7.78
2018-03-02T05:35:03.879Z,9.07
2018-03-02T05:37:31.596Z,8.50
2018-03-02T05:39:59.285Z,7.80
2018-03-02T05:42:27.001Z,8.35
2018-03-02T05:44:54.688Z,7.18
2018-03-02T05:47:22.490Z,8.07
2018-03-02T05:49:50.184Z,9.07
2018-03-02T05:52:17.919Z,8.43
2018-03-02T05:54:45.603Z,7.20
2018-03-02T05:57:13.287Z,8.40
2018-03-02T05:59:41.009Z,10.93
2018-03-02T06:02:08.700Z,9.43
2018-03-02T06:04:36.412Z,14.02
2018-03-02T06:07:04.207Z,12.40
2018-03-02T06:09:32.071Z,12.20
2018-03-02T06:11:59.763Z,12.15
2018-03-02T06:14:27.476Z,13.20
2018-03-02T06:16:55.168Z,11.18
2018-03-02T06:19:22.936Z,11.55
2018-03-02T06:21:50.638Z,9.27
2018-03-02T06:24:18.363Z,9.38
2018-03-02T06:26:46.089Z,8.70
2018-03-02T06:29:13.807Z,9.05
2018-03-02T06:31:41.533Z,9.93
2018-03-02T06:34:09.215Z,8.85
2018-03-02T06:36:36.921Z,9.00
2018-03-02T06:39:04.644Z,9.25
2018-03-02T06:41:32.360Z,9.07
2018-03-02T06:44:00.089Z,7.12
2018-03-02T06:46:27.837Z,9.02
2018-03-02T06:48:55.543Z,8.05
2018-03-02T06:51:23.280Z,9.43
2018-03-02T06:53:50.972Z,9.65
2018-03-02T06:56:18.695Z,9.20
2018-03-02T06:58:46.388Z,12.02
2018-03-02T07:01:14.080Z,9.63
2018-03-02T07:03:41.796Z,12.73
2018-03-02T07:06:09.771Z,12.43
2018-03-02T07:08:37.533Z,9.98
2018-03-02T07:11:05.219Z,8.85
2018-03-02T07:13:32.945Z,8.13
2018-03-02T07:16:00.720Z,10.68
2018-03-02T07:18:28.445Z,9.98
2018-03-02T07:20:56.152Z,9.05
2018-03-02T07:23:23.852Z,7.43
2018-03-02T07:25:51.571Z,9.75
2018-03-02T07:28:19.352Z,10.77
2018-03-02T07:30:47.041Z,8.95
2018-03-02T07:33:14.775Z,13.73
2018-03-02T07:35:42.477Z,14.65
2018-03-02T07:38:10.180Z,10.73
2018-03-02T07:40:37.970Z,15.32
2018-03-02T07:43:05.667Z,12.55
2018-03-02T07:45:33.391Z,14.43
2018-03-02T07:48:01.088Z,16.27
2018-03-02T07:50:28.827Z,14.15
2018-03-02T07:52:56.696Z,11.30
2018-03-02T07:55:24.400Z,8.73
2018-03-02T07:57:52.092Z,12.50
2018-03-02T08:00:19.813Z,11.00
2018-03-02T08:02:47.504Z,13.85
2018-03-02T08:05:15.321Z,11.38
2018-03-02T08:07:43.176Z,12.40
2018-03-02T08:10:10.863Z,13.00
2018-03-02T08:12:38.572Z,9.63
2018-03-02T08:15:06.263Z,12.35
2018-03-02T08:17:34.037Z,9.32
2018-03-02T08:20:01.728Z,10.55
2018-03-02T08:22:29.436Z,5.85
2018-03-02T08:24:57.134Z,12.55
2018-03-02T08:27:24.873Z,13.05
2018-03-02T08:29:52.670Z,11.30
2018-03-02T08:32:20.355Z,10.15
2018-03-02T08:34:48.060Z,13.00
2018-03-02T08:37:15.862Z,12.23
2018-03-02T08:39:43.586Z,11.35
2018-03-02T08:42:11.279Z,10.60
2018-03-02T08:44:39.005Z,10.05
2018-03-02T08:47:06.698Z,10.27
2018-03-02T08:49:34.411Z,11.38
2018-03-02T08:52:02.145Z,8.38
2018-03-02T08:54:29.848Z,9.95
2018-03-02T08:56:57.572Z,9.90
2018-03-02T08:59:25.308Z,11.45
2018-03-02T09:01:53.009Z,13.15
2018-03-02T09:04:20.700Z,12.20
2018-03-02T09:06:48.411Z,13.18
2018-03-02T09:09:16.105Z,15.15
2018-03-02T09:11:43.833Z,12.52
2018-03-02T09:14:11.533Z,8.80
2018-03-02T09:16:39.252Z,12.48
2018-03-02T09:19:06.948Z,10.50
2018-03-02T09:21:34.748Z,14.00
2018-03-02T09:24:02.576Z,11.73
2018-03-02T09:26:30.341Z,12.20
2018-03-02T09:28:58.049Z,10.98
2018-03-02T09:31:25.964Z,15.18
2018-03-02T09:33:54.160Z,7.57
2018-03-02T09:36:21.912Z,9.40
2018-03-02T09:38:49.784Z,11.77
2018-03-02T09:41:17.652Z,12.90
2018-03-02T09:43:45.426Z,9.65
2018-03-02T09:46:13.387Z,11.32
2018-03-02T09:48:41.235Z,13.13
2018-03-02T09:51:08.956Z,8.98
2018-03-02T09:53:36.787Z,13.52
2018-03-02T09:56:04.860Z,14.32
2018-03-02T09:58:32.604Z,9.80
2018-03-02T10:01:00.292Z,14.85
2018-03-02T10:03:28.056Z,14.27
2018-03-02T10:05:55.740Z,14.23
2018-03-02T10:08:23.456Z,10.73
2018-03-02T10:10:51.252Z,12.20
2018-03-02T10:13:18.969Z,11.20
2018-03-02T10:15:46.710Z,11.70
2018-03-02T10:18:14.396Z,14.68
2018-03-02T10:20:42.084Z,12.40
2018-03-02T10:23:09.796Z,13.18
2018-03-02T10:25:37.479Z,12.40
2018-03-02T10:28:05.208Z,11.07
2018-03-02T10:30:32.976Z,6.37
2018-03-02T10:33:00.741Z,6.28
2018-03-02T10:35:28.481Z,11.43
2018-03-02T10:37:56.168Z,10.57
2018-03-02T10:40:23.890Z,11.27
2018-03-02T10:42:51.592Z,9.68
2018-03-02T10:45:19.353Z,9.55
2018-03-02T10:47:47.077Z,7.47
2018-03-02T10:50:14.890Z,8.98
2018-03-02T10:52:42.593Z,9.65
2018-03-02T10:55:10.300Z,8.95
2018-03-02T10:57:37.997Z,10.52
2018-03-02T11:00:05.735Z,12.50
2018-03-02T11:02:33.457Z,9.38
2018-03-02T11:05:06.908Z,7.00
2018-03-02T11:07:34.673Z,12.55
2018-03-02T11:10:02.434Z,6.07
2018-03-02T11:12:30.144Z,11.93
2018-03-02T11:14:57.880Z,10.65
2018-03-02T11:17:25.604Z,11.98
2018-03-02T11:19:53.496Z,8.35
2018-03-02T11:22:21.263Z,11.68
2018-03-02T11:24:49.043Z,9.25
2018-03-02T11:27:16.802Z,9.25
2018-03-02T11:29:44.492Z,9.70
2018-03-02T11:32:12.228Z,8.93
2018-03-02T11:34:39.916Z,8.27
2018-03-02T11:37:07.751Z,9.18
2018-03-02T11:39:35.524Z,11.07
2018-03-02T11:42:03.213Z,9.48
2018-03-02T11:44:30.919Z,10.88
2018-03-02T11:46:58.739Z,7.32
2018-03-02T11:49:26.461Z,11.85
2018-03-02T11:51:54.147Z,12.88
2018-03-02T11:54:21.886Z,12.30
2018-03-02T11:56:49.576Z,13.15
2018-03-02T11:59:17.279Z,7.93
2018-03-02T12:01:44.968Z,8.07
2018-03-02T12:04:12.713Z,11.90
2018-03-02T12:06:40.436Z,10.32
2018-03-02T12:09:08.133Z,7.28
2018-03-02T12:11:35.859Z,13.85
2018-03-02T12:14:03.547Z,12.82
2018-03-02T12:16:31.252Z,12.23
2018-03-02T12:18:59.048Z,7.72
2018-03-02T12:21:26.751Z,8.60
2018-03-02T12:23:54.436Z,11.55
2018-03-02T12:26:22.157Z,11.30
2018-03-02T12:28:49.860Z,12.85
2018-03-02T12:31:17.580Z,8.07
2018-03-02T12:33:45.284Z,13.43
2018-03-02T12:36:12.999Z,11.07
2018-03-02T12:38:40.768Z,10.85
2018-03-02T12:41:08.537Z,12.35
2018-03-02T12:43:36.293Z,10.70
2018-03-02T12:46:03.992Z,12.68
2018-03-02T12:48:31.733Z,13.65
2018-03-02T12:50:59.589Z,13.48
2018-03-02T12:53:27.311Z,12.37
2018-03-02T12:55:55.000Z,11.88
2018-03-02T12:58:22.708Z,12.98
2018-03-02T13:00:50.456Z,13.70
2018-03-02T13:03:18.202Z,14.45
2018-03-02T13:05:45.987Z,11.25
2018-03-02T13:08:13.756Z,8.60
2018-03-02T13:10:41.516Z,17.87
2018-03-02T13:13:09.279Z,14.18
2018-03-02T13:15:36.967Z,14.00
2018-03-02T13:18:04.709Z,17.12
2018-03-02T13:20:32.481Z,4.97
2018-03-02T13:23:00.222Z,11.60
2018-03-02T13:25:28.014Z,15.40
2018-03-02T13:28:07.448Z,14.52
2018-03-02T13:30:35.137Z,15.77
2018-03-02T13:33:14.551Z,10.35
2018-03-02T13:35:42.321Z,12.75
2018-03-02T13:38:10.012Z,13.25
2018-03-02T13:40:49.516Z,14.10
2018-03-02T13:43:17.212Z,12.07
2018-03-02T13:45:44.930Z,12.18
2018-03-02T13:51:12.936Z,5.47
2018-03-02T13:53:40.632Z,12.10
2018-03-02T13:56:08.377Z,11.65
2018-03-02T13:58:36.064Z,12.20
2018-03-02T14:01:03.779Z,11.12
2018-03-02T14:03:43.390Z,9.93
2018-03-02T14:06:11.203Z,11.85
2018-03-02T14:08:38.892Z,11.75
2018-03-02T14:11:06.646Z,12.05
2018-03-02T14:13:34.327Z,9.80
2018-03-02T14:16:02.036Z,11.40
2018-03-02T14:18:29.833Z,13.18
2018-03-02T14:20:57.554Z,13.02
2018-03-02T14:23:25.247Z,13.20
2018-03-02T14:25:52.955Z,12.88
2018-03-02T14:28:20.640Z,9.23
2018-03-02T14:30:48.341Z,8.73
2018-03-02T14:33:16.033Z,13.30
2018-03-02T14:35:43.758Z,12.02
2018-03-02T14:38:11.447Z,10.45
2018-03-02T14:40:39.365Z,11.63
2018-03-02T14:43:07.027Z,10.68
2018-03-02T14:45:34.735Z,10.27
2018-03-02T14:48:02.445Z,8.90
2018-03-02T14:50:30.163Z,8.65
2018-03-02T14:52:57.989Z,10.20
2018-03-02T14:55:25.700Z,11.35
2018-03-02T14:57:53.471Z,10.75
2018-03-02T15:00:21.232Z,9.30
2018-03-02T15:02:48.992Z,9.43
2018-03-02T15:05:16.677Z,9.60
2018-03-02T15:07:44.388Z,11.38
2018-03-02T15:10:12.078Z,11.25
2018-03-02T15:12:39.790Z,10.60
2018-03-02T15:15:07.515Z,10.77
2018-03-02T15:17:35.283Z,11.65
2018-03-02T15:20:02.990Z,11.00
2018-03-02T15:22:30.705Z,11.30
2018-03-02T15:24:58.479Z,10.82
2018-03-02T15:27:26.208Z,8.80
2018-03-02T15:29:53.891Z,10.55
2018-03-02T15:32:21.672Z,9.52
2018-03-02T15:34:49.379Z,6.35
2018-03-02T15:37:17.113Z,10.77
2018-03-02T15:39:44.824Z,11.48
2018-03-02T15:42:12.555Z,11.23
2018-03-02T15:44:40.252Z,11.60
2018-03-02T15:47:07.936Z,9.68
2018-03-02T15:49:35.802Z,9.45
2018-03-02T15:52:03.452Z,12.10
2018-03-02T15:54:31.257Z,10.75
2018-03-02T15:56:58.953Z,9.82
2018-03-02T15:59:26.674Z,10.20
2018-03-02T16:01:54.385Z,10.32
2018-03-02T16:04:22.216Z,12.73
2018-03-02T16:06:49.983Z,9.55
2018-03-02T16:09:17.751Z,11.80
2018-03-02T16:11:45.492Z,11.30
2018-03-02T16:14:13.238Z,11.15
2018-03-02T16:16:40.943Z,12.68
2018-03-02T16:19:08.668Z,11.00
2018-03-02T16:21:36.472Z,10.75
2018-03-02T16:24:04.254Z,11.20
2018-03-02T16:26:31.963Z,11.27
2018-03-02T16:28:59.661Z,11.98
2018-03-02T16:31:27.436Z,12.15
2018-03-02T16:33:55.131Z,10.80
2018-03-02T16:36:22.846Z,9.85
2018-03-02T16:38:50.628Z,11.43
2018-03-02T16:41:18.372Z,12.02
2018-03-02T16:43:46.059Z,10.40
2018-03-02T16:46:13.752Z,10.73
2018-03-02T16:48:41.460Z,11.23
2018-03-02T16:51:09.147Z,11.70
2018-03-02T16:53:36.868Z,11.15
2018-03-02T16:56:04.553Z,9.63
2018-03-02T16:58:32.270Z,11.73
2018-03-02T17:01:00.003Z,8.43
2018-03-02T17:03:27.772Z,10.57
2018-03-02T17:05:55.540Z,10.32
2018-03-02T17:08:23.257Z,11.43
2018-03-02T17:10:50.952Z,12.95
2018-03-02T17:13:18.740Z,8.05
2018-03-02T17:15:46.505Z,10.90
2018-03-02T17:18:14.359Z,12.85
2018-03-02T17:20:42.241Z,11.48
2018-03-02T17:23:09.951Z,9.05
2018-03-02T17:25:37.637Z,10.32
2018-03-02T17:28:05.374Z,10.13
2018-03-02T17:30:33.060Z,10.55
2018-03-02T17:33:00.748Z,12.02
2018-03-02T17:35:28.455Z,11.77
2018-03-02T17:37:56.157Z,11.70
2018-03-02T17:40:23.867Z,10.55
2018-03-02T17:42:51.572Z,11.77
2018-03-02T17:45:19.305Z,12.25
2018-03-02T17:47:47.011Z,11.48
2018-03-02T17:50:14.804Z,10.32
2018-03-02T17:52:42.496Z,10.60
2018-03-02T17:55:10.237Z,10.13
2018-03-02T17:57:38.010Z,11.20
2018-03-02T18:00:05.781Z,7.20
2018-03-02T18:02:33.440Z,12.55
2018-03-02T18:05:01.152Z,10.32
2018-03-02T18:07:28.906Z,10.75
2018-03-02T18:09:56.637Z,10.60
2018-03-02T18:12:24.392Z,10.27
2018-03-02T18:14:52.169Z,11.05
2018-03-02T18:17:19.926Z,10.80
2018-03-02T18:19:47.688Z,12.32
2018-03-02T18:22:15.390Z,11.55
2018-03-02T18:24:43.120Z,10.85
2018-03-02T18:27:10.833Z,10.10
2018-03-02T18:29:38.524Z,11.65
2018-03-02T18:32:06.235Z,10.77
2018-03-02T18:34:33.976Z,13.33
2018-03-02T18:37:01.740Z,13.20
2018-03-02T18:39:29.503Z,13.15
2018-03-02T18:41:57.215Z,12.95
2018-03-02T18:44:24.903Z,11.88
2018-03-02T18:46:52.612Z,13.85
2018-03-02T18:49:20.296Z,13.50
2018-03-02T18:51:48.041Z,11.05
2018-03-02T18:54:15.733Z,13.68
2018-03-02T18:56:43.444Z,10.10
2018-03-02T18:59:11.223Z,11.95
2018-03-02T19:01:38.998Z,11.12
2018-03-02T19:04:06.697Z,11.00
2018-03-02T19:06:34.384Z,13.25
2018-03-02T19:09:02.100Z,12.65
2018-03-02T19:11:29.784Z,11.30
2018-03-02T19:13:57.513Z,12.27
2018-03-02T19:16:25.204Z,12.60
2018-03-02T19:18:52.912Z,10.45
2018-03-02T19:21:20.595Z,13.15
2018-03-02T19:23:48.303Z,12.75
2018-03-02T19:26:16.005Z,11.27
2018-03-02T19:28:43.716Z,13.77
2018-03-02T19:31:11.413Z,13.25
2018-03-02T19:33:39.136Z,9.77
2018-03-02T19:36:06.888Z,12.20
2018-03-02T19:38:34.583Z,10.52
2018-03-02T19:41:02.337Z,12.10
2018-03-02T19:43:30.101Z,11.48
2018-03-02T19:45:57.807Z,11.93
2018-03-02T19:48:25.515Z,11.48
2018-03-02T19:50:53.276Z,11.12
2018-03-02T19:53:20.979Z,12.23
2018-03-02T19:55:48.713Z,11.73
2018-03-02T19:58:16.417Z,11.30
2018-03-02T20:00:44.240Z,12.35
2018-03-02T20:03:11.941Z,10.70
2018-03-02T20:05:39.680Z,10.20
2018-03-02T20:08:07.431Z,12.18
2018-03-02T20:10:35.118Z,12.02
2018-03-02T20:13:02.859Z,11.40
2018-03-02T20:15:30.627Z,12.23
2018-03-02T20:17:58.405Z,10.80
2018-03-02T20:20:26.151Z,10.68
2018-03-02T20:22:53.856Z,10.52
2018-03-02T20:25:21.584Z,11.00
2018-03-02T20:27:49.299Z,12.37
2018-03-02T20:30:17.012Z,10.73
2018-03-02T20:32:44.775Z,9.65
2018-03-02T20:35:12.661Z,10.93
2018-03-02T20:37:40.412Z,9.95
2018-03-02T20:40:08.114Z,10.50
2018-03-02T20:42:35.851Z,10.23
2018-03-02T20:45:03.567Z,12.07
2018-03-02T20:47:31.252Z,9.45
2018-03-02T20:49:58.973Z,10.13
2018-03-02T20:52:26.664Z,6.25
2018-03-02T20:54:54.467Z,11.77
2018-03-02T20:57:22.151Z,7.72
2018-03-02T20:59:49.865Z,9.27
2018-03-02T21:02:17.553Z,9.15
2018-03-02T21:04:45.261Z,8.70
2018-03-02T21:07:12.954Z,8.38
2018-03-02T21:09:40.668Z,11.12
2018-03-02T21:12:08.375Z,8.70
2018-03-02T21:14:36.088Z,10.20
2018-03-02T21:17:03.768Z,8.60
2018-03-02T21:19:31.549Z,9.23
2018-03-02T21:21:59.267Z,10.02
2018-03-02T21:24:27.040Z,10.20
2018-03-02T21:26:54.803Z,9.73
2018-03-02T21:29:22.492Z,9.20
2018-03-02T21:31:50.231Z,9.75
2018-03-02T21:34:18.978Z,10.38
2018-03-02T21:36:46.381Z,9.35
2018-03-02T21:39:14.256Z,9.50
2018-03-02T21:41:41.979Z,8.35
2018-03-02T21:44:09.733Z,9.77
2018-03-02T21:46:37.556Z,9.18
2018-03-02T21:49:05.256Z,9.32
2018-03-02T21:51:33.072Z,8.20
2018-03-02T21:54:00.757Z,8.25
2018-03-02T21:56:28.514Z,10.25
2018-03-02T21:58:56.199Z,8.45
2018-03-02T22:01:23.963Z,8.73
2018-03-02T22:03:51.926Z,8.70
2018-03-02T22:06:19.660Z,8.75
2018-03-02T22:08:47.371Z,10.55
2018-03-02T22:11:15.116Z,9.60
2018-03-02T22:13:42.860Z,9.13
2018-03-02T22:16:10.591Z,9.00
2018-03-02T22:18:38.313Z,9.45
2018-03-02T22:21:06.004Z,10.23
2018-03-02T22:23:33.717Z,9.88
2018-03-02T22:26:01.436Z,9.52
2018-03-02T22:28:29.253Z,9.63
2018-03-02T22:30:56.945Z,10.50
2018-03-02T22:33:24.656Z,9.00
2018-03-02T22:35:52.344Z,8.35
2018-03-02T22:38:20.104Z,9.65
2018-03-02T22:40:47.796Z,8.90
2018-03-02T22:43:15.472Z,9.10
2018-03-02T22:45:43.179Z,8.30
2018-03-02T22:48:10.859Z,9.27
2018-03-02T22:50:38.571Z,10.65
2018-03-02T22:53:06.262Z,9.73
2018-03-02T22:55:33.964Z,9.80
2018-03-02T22:58:01.716Z,10.07
2018-03-02T23:00:29.449Z,10.98
2018-03-02T23:02:57.149Z,10.20
2018-03-02T23:05:24.918Z,10.05
2018-03-02T23:07:52.607Z,10.10
2018-03-02T23:10:20.291Z,9.82
2018-03-02T23:12:48.108Z,9.23
2018-03-02T23:15:15.796Z,9.05
2018-03-02T23:17:43.500Z,8.13
2018-03-02T23:20:11.300Z,10.77
2018-03-02T23:22:39.064Z,10.20
2018-03-02T23:25:06.752Z,9.43
2018-03-02T23:27:34.500Z,9.52
2018-03-02T23:30:02.185Z,9.50
2018-03-02T23:32:29.923Z,7.45
2018-03-02T23:34:57.692Z,8.85
2018-03-02T23:37:25.460Z,8.55
2018-03-02T23:39:53.152Z,10.05
2018-03-02T23:42:20.844Z,10.23
2018-03-02T23:44:48.652Z,8.32
2018-03-02T23:47:16.404Z,9.23
2018-03-02T23:49:44.116Z,10.68
2018-03-02T23:52:11.835Z,9.05
2018-03-02T23:54:39.578Z,10.38
2018-03-02T23:57:07.271Z,10.85
2018-03-02T23:59:35.128Z,10.63
